Latest Weather Observations for Shepparton

IDV60801

Issued at 6:52 pm EDT Sunday 29 March 2020 (issued every 10 minutes, with the page automatically refreshed every 10 minutes)

About weather observations | Map of weather stations | Latest weather observations for VIC | Other Formats
Station Details ID: 081125 Name: SHEPPARTON AIRPORT Lat: -36.43 Lon: 145.39 Height: 113.9 m
Data from the previous 72 hours. | See also: Recent months at Shepparton
Date/Time
EDT
Temp
°C
App
Temp
°C
Dew
Point
°C
Rel
Hum
%
Delta-T
°C
Wind Press
QNH
hPa
Press
MSL
hPa
Rain since
9am
mm
Dir  Spd
km/h
Gust
km/h
Spd
kts
Gust
kts
29/06:30pm 18.8 20.0 18.3 97 0.3 ENE 9 13 5 7 1011.9 1011.5 3.8
29/06:00pm 18.4 19.8 17.9 97 0.3 ESE 7 11 4 6 1011.3 1010.9 3.8
29/05:30pm 18.1 18.4 17.8 98 0.2 SE 13 15 7 8 1011.1 1010.7 3.8
29/05:00pm 17.9 18.0 17.4 97 0.3 E 13 17 7 9 1011.2 1010.8 3.8
29/04:48pm 17.8 18.9 17.0 95 0.5 SSW 7 13 4 7 1011.8 1011.4 3.8
29/04:34pm 17.8 14.5 16.1 90 1.0 SW 28 46 15 25 1012.5 1012.1 3.6
29/04:32pm 18.0 14.3 16.0 88 1.2 WSW 30 46 16 25 1012.4 1012.0 3.4
29/04:30pm 18.3 14.9 15.7 85 1.5 W 28 46 15 25 1012.3 1011.9 3.0
29/04:24pm 20.7 19.6 17.7 83 1.9 NNE 20 35 11 19 1012.7 1012.3 1.0
29/04:00pm 21.1 20.0 17.7 81 2.1 NE 20 30 11 16 1010.6 1010.2 1.0
29/03:30pm 21.5 19.4 17.1 76 2.7 NE 24 35 13 19 1010.9 1010.5 1.0
29/03:00pm 20.9 19.2 17.3 80 2.2 NNE 22 30 12 16 1011.8 1011.4 1.0
29/02:30pm 21.6 19.9 16.3 72 3.2 N 20 28 11 15 1012.8 1012.4 0.6
29/02:00pm 22.2 19.8 15.5 66 4.0 NNE 22 30 12 16 1012.8 1012.4 0.6
29/01:30pm 22.9 18.8 16.0 65 4.2 NNE 32 44 17 24 1013.1 1012.7 0.6
29/01:00pm 23.8 22.5 15.8 61 4.9 N 17 28 9 15 1013.4 1013.0 0.6
29/12:30pm 26.6 21.8 13.0 43 8.0 N 30 37 16 20 1014.0 1013.6 0.0
29/12:00pm 25.6 21.5 12.8 45 7.5 NNE 26 39 14 21 1014.4 1014.1 0.0
29/11:30am 25.2 21.0 13.4 48 6.9 NNE 28 43 15 23 1014.9 1014.6 0.0
29/11:00am 22.8 19.0 12.4 52 5.9 NNE 24 35 13 19 1015.5 1015.2 0.0
29/10:30am 22.5 18.7 12.4 52 5.8 NNE 24 37 13 20 1015.6 1015.3 0.0
29/10:00am 20.6 17.0 11.8 57 4.9 NNE 22 35 12 19 1015.8 1015.5 0.0
29/09:30am 19.8 16.1 11.6 59 4.6 NE 22 32 12 17 1015.9 1015.6 0.0
29/09:00am 19.7 16.3 11.2 58 4.7 NE 20 28 11 15 1015.9 1015.6 0.0
29/08:30am 18.0 15.3 10.4 61 4.1 NE 15 22 8 12 1015.9 1015.6 0.0
29/08:00am 17.4 14.5 9.8 61 4.0 NE 15 22 8 12 1015.7 1015.4 0.0
29/07:30am 17.3 14.4 9.5 60 4.1 NE 15 20 8 11 1015.6 1015.3 0.0
29/07:00am 17.3 14.3 9.2 59 4.2 NE 15 20 8 11 1015.5 1015.2 0.0
29/06:30am 17.5 14.4 8.9 57 4.5 NE 15 24 8 13 1015.3 1015.0 0.0
29/06:00am 17.3 14.5 8.7 57 4.4 NE 13 17 7 9 1015.4 1015.1 0.0
29/05:30am 17.3 14.5 8.7 57 4.5 NE 13 17 7 9 1015.3 1015.0 0.0
29/05:00am 17.0 14.5 8.2 56 4.5 NE 11 17 6 9 1015.2 1014.9 0.0
29/04:30am 17.1 14.2 8.0 55 4.6 NE 13 15 7 8 1015.3 1015.0 0.0
29/04:00am 17.4 14.4 7.7 53 4.9 NE 13 17 7 9 1015.4 1015.1 0.0
29/03:30am 17.8 14.8 7.5 51 5.2 NE 13 24 7 13 1015.7 1015.4 0.0
29/03:00am 18.2 14.7 7.3 49 5.5 NE 15 20 8 11 1015.9 1015.6 0.0
29/02:30am 18.1 15.1 7.5 50 5.4 NE 13 17 7 9 1016.3 1016.0 0.0
29/02:00am 18.0 15.3 7.4 50 5.4 ENE 11 15 6 8 1016.6 1016.3 0.0
29/01:30am 17.7 15.0 7.2 50 5.3 ENE 11 15 6 8 1016.8 1016.5 0.0
29/01:00am 17.7 15.3 7.2 50 5.3 ENE 9 13 5 7 1017.0 1016.7 0.0
29/12:30am 17.8 15.4 7.0 49 5.4 NE 9 13 5 7 1017.3 1017.0 0.0
29/12:00am 18.6 15.5 7.1 47 5.8 NE 13 17 7 9 1017.5 1017.2 0.0
 
Date/Time
EDT
Temp
°C
App
Temp
°C
Dew
Point
°C
Rel
Hum
%
Delta-T
°C
Wind Press
QNH
hPa
Press
MSL
hPa
Rain since
9am
mm
Dir  Spd
km/h
Gust
km/h
Spd
kts
Gust
kts
28/11:30pm 19.2 16.1 7.3 46 6.1 NE 13 17 7 9 1017.7 1017.4 0.0
28/11:00pm 19.5 16.4 7.3 45 6.2 NE 13 17 7 9 1017.8 1017.5 0.0
28/10:30pm 20.0 17.2 7.1 43 6.6 NE 11 17 6 9 1018.0 1017.7 0.0
28/10:00pm 20.4 17.3 7.1 42 6.8 NE 13 17 7 9 1017.9 1017.6 0.0
28/09:30pm 20.4 17.7 7.4 43 6.7 NE 11 13 6 7 1018.1 1017.8 0.0
28/09:00pm 21.2 18.5 7.4 41 7.1 NE 11 17 6 9 1018.0 1017.7 0.0
28/08:30pm 21.9 19.2 7.3 39 7.6 NE 11 15 6 8 1017.8 1017.5 0.0
28/08:00pm 22.4 19.8 7.8 39 7.7 NE 11 15 6 8 1017.6 1017.3 0.0
28/07:30pm 23.3 20.6 7.4 36 8.3 NE 11 13 6 7 1017.6 1017.3 0.0
28/07:00pm 24.9 21.4 7.1 32 9.4 NE 15 20 8 11 1017.6 1017.3 0.0
28/06:30pm 25.8 22.3 7.4 31 9.8 NNE 15 22 8 12 1017.6 1017.3 0.0
28/06:00pm 26.2 22.6 8.2 32 9.7 NNE 17 24 9 13 1017.7 1017.4 0.0
28/05:30pm 26.0 22.2 7.6 31 9.8 NE 17 22 9 12 1017.9 1017.6 0.0
28/05:00pm 26.1 22.1 8.1 32 9.7 NNE 19 28 10 15 1018.1 1017.8 0.0
28/04:30pm 27.8 24.0 9.1 31 10.4 NNE 19 30 10 16 1018.2 1017.9 0.0
28/04:00pm 27.8 23.7 8.6 30 10.5 N 20 30 11 16 1018.3 1018.0 0.0
28/03:30pm 27.2 22.8 9.1 32 10.0 NE 22 32 12 17 1018.6 1018.3 0.0
28/03:00pm 26.8 22.6 8.3 31 10.0 NNE 20 32 11 17 1019.1 1018.8 0.0
28/02:30pm 26.8 22.7 8.7 32 9.9 N 20 28 11 15 1019.7 1019.3 0.0
28/02:00pm 26.7 22.3 9.1 33 9.7 NNE 22 33 12 18 1020.3 1019.9 0.0
28/01:30pm 26.6 22.0 9.5 34 9.5 NNE 24 39 13 21 1020.8 1020.4 0.0
28/01:00pm 25.9 20.8 9.3 35 9.1 N 26 35 14 19 1021.4 1021.0 0.0
28/12:30pm 24.4 20.4 9.2 38 8.3 NNE 20 32 11 17 1021.8 1021.5 0.0
28/12:00pm 24.0 20.2 9.9 41 7.7 NNE 20 30 11 16 1022.1 1021.8 0.0
28/11:30am 23.3 19.5 9.7 42 7.4 NE 20 30 11 16 1022.6 1022.3 0.0
28/11:00am 22.3 17.9 10.5 47 6.5 NNE 24 32 13 17 1022.8 1022.5 0.0
28/10:30am 21.4 17.0 10.3 49 6.1 NE 24 32 13 17 1022.9 1022.6 0.0
28/10:00am 20.3 15.6 10.7 54 5.2 NE 26 33 14 18 1023.0 1022.7 0.0
28/09:30am 19.2 15.6 10.7 58 4.6 NE 20 30 11 16 1023.1 1022.8 0.0
28/09:00am 18.4 15.1 11.0 62 4.0 NE 19 26 10 14 1023.1 1022.8 0.0
28/08:30am 17.6 14.7 10.9 65 3.6 NE 17 24 9 13 1022.9 1022.6 0.0
28/08:00am 17.3 15.1 10.7 65 3.5 NE 13 19 7 10 1022.7 1022.4 0.0
28/07:30am 17.2 14.9 10.6 65 3.5 NE 13 20 7 11 1022.5 1022.2 0.0
28/07:00am 17.5 15.2 10.4 63 3.8 NE 13 17 7 9 1022.2 1021.9 0.0
28/06:30am 17.5 15.5 10.1 62 3.9 NE 11 15 6 8 1022.1 1021.8 0.0
28/06:00am 17.7 14.9 10.1 61 4.0 ENE 15 24 8 13 1021.8 1021.5 0.0
28/05:30am 17.6 15.4 9.5 59 4.3 ENE 11 15 6 8 1021.8 1021.5 0.0
28/05:00am 17.7 15.2 9.6 59 4.3 ENE 13 19 7 10 1021.6 1021.2 0.0
28/04:30am 17.5 14.9 9.2 58 4.3 ENE 13 17 7 9 1021.6 1021.2 0.0
28/04:00am 16.1 14.0 8.1 59 4.0 E 9 11 5 6 1021.7 1021.4 0.0
28/03:30am 17.5 15.4 8.4 55 4.7 ENE 9 11 5 6 1021.7 1021.4 0.0
28/03:00am 17.2 14.7 8.4 56 4.5 ENE 11 15 6 8 1021.8 1021.5 0.0
28/02:30am 16.5 14.4 8.2 58 4.2 NE 9 13 5 7 1022.0 1021.7 0.0
28/02:00am 14.9 13.2 7.7 62 3.6 ENE 6 11 3 6 1021.8 1021.5 0.0
28/01:30am 14.1 13.5 7.2 63 3.4 CALM 0 0 0 0 1021.9 1021.6 0.0
28/01:00am 14.7 14.1 7.3 61 3.6 CALM 0 0 0 0 1021.8 1021.5 0.0
28/12:30am 14.2 12.4 7.3 63 3.4 ENE 6 9 3 5 1021.9 1021.6 0.0
28/12:00am 14.6 14.0 7.4 62 3.6 CALM 0 0 0 0 1021.9 1021.6 0.0
 
Date/Time
EDT
Temp
°C
App
Temp
°C
Dew
Point
°C
Rel
Hum
%
Delta-T
°C
Wind Press
QNH
hPa
Press
MSL
hPa
Rain since
9am
mm
Dir  Spd
km/h
Gust
km/h
Spd
kts
Gust
kts
27/11:30pm 15.5 14.9 7.5 59 4.0 CALM 0 0 0 0 1022.0 1021.7 0.0
27/11:00pm 16.2 15.7 7.9 58 4.2 CALM 0 0 0 0 1022.2 1021.9 0.0
27/10:30pm 16.5 16.1 8.2 58 4.2 CALM 0 0 0 0 1022.3 1022.0 0.0
27/10:00pm 16.0 15.2 6.4 53 4.7 CALM 0 0 0 0 1022.3 1022.0 0.0
27/09:30pm 17.5 16.9 7.5 52 5.1 CALM 0 0 0 0 1022.3 1022.0 0.0
27/09:00pm 18.5 17.9 7.6 49 5.5 CALM 0 0 0 0 1022.2 1021.9 0.0
27/08:30pm 20.9 18.7 6.4 39 7.3 ENE 7 9 4 5 1021.9 1021.6 0.0
27/08:00pm 22.1 19.5 6.3 36 8.0 ENE 9 9 5 5 1021.7 1021.4 0.0
27/07:30pm 23.0 20.9 6.7 35 8.4 ENE 7 9 4 5 1021.6 1021.2 0.0
27/07:00pm 24.4 21.9 6.6 32 9.2 ENE 9 13 5 7 1021.6 1021.2 0.0
27/06:30pm 25.7 23.1 6.3 29 10.1 ENE 9 15 5 8 1021.4 1021.0 0.0
27/06:00pm 26.4 23.1 6.4 28 10.5 ENE 13 19 7 10 1021.5 1021.1 0.0
27/05:30pm 26.6 23.3 6.6 28 10.5 E 13 22 7 12 1021.5 1021.1 0.0
27/05:00pm 26.2 23.8 6.8 29 10.2 ENE 9 17 5 9 1021.7 1021.4 0.0
27/04:30pm 26.6 24.3 7.6 30 10.2 E 9 13 5 7 1021.9 1021.6 0.0
27/04:00pm 26.6 23.3 6.6 28 10.5 ENE 13 20 7 11 1022.3 1022.0 0.0
27/03:30pm 26.8 23.2 6.8 28 10.6 E 15 26 8 14 1022.6 1022.3 0.0
27/03:00pm 26.8 23.4 7.8 30 10.2 NNE 15 30 8 16 1022.8 1022.5 0.0
27/02:30pm 26.8 23.8 7.8 30 10.2 NE 13 24 7 13 1023.2 1022.9 0.0
27/02:00pm 26.0 21.9 8.0 32 9.6 NNE 19 24 10 13 1023.7 1023.4 0.0
27/01:30pm 25.6 22.2 7.7 32 9.6 NNE 15 22 8 12 1024.2 1023.9 0.0
27/01:00pm 24.6 21.9 9.0 37 8.4 NE 13 19 7 10 1024.7 1024.4 0.0
27/12:30pm 24.3 20.9 9.1 38 8.3 NE 17 24 9 13 1025.0 1024.7 0.0
27/12:00pm 24.2 20.5 9.4 39 8.0 NE 19 28 10 15 1025.4 1025.1 0.0
27/11:30am 22.8 19.4 9.2 42 7.3 NNE 17 26 9 14 1025.7 1025.4 0.0
27/11:00am 22.0 17.4 9.5 45 6.7 NNE 24 32 13 17 1026.0 1025.7 0.0
27/10:30am 21.5 17.6 9.4 46 6.5 NE 20 30 11 16 1026.1 1025.8 0.0
27/10:00am 21.0 17.2 9.9 49 6.0 NE 20 28 11 15 1026.2 1025.9 0.0
27/09:30am 18.5 15.4 9.0 54 5.0 NE 15 20 8 11 1026.2 1025.9 0.0
27/09:00am 18.0 16.2 9.4 57 4.5 E 9 13 5 7 1026.2 1025.9 0.0
27/08:30am 15.1 13.7 9.7 70 2.8 S 7 9 4 5 1026.0 1025.7 0.0
27/08:00am 14.1 14.0 9.5 74 2.4 CALM 0 0 0 0 1025.8 1025.5 0.0
27/07:30am 12.8 12.7 9.3 79 1.8 CALM 0 0 0 0 1025.6 1025.3 0.0
27/07:00am 12.9 11.6 9.2 78 1.9 S 6 6 3 3 1025.3 1025.0 0.0
27/06:30am 12.7 11.2 9.3 80 1.7 S 7 9 4 5 1025.0 1024.7 0.0
27/06:00am 12.1 11.2 9.3 83 1.4 S 4 6 2 3 1024.6 1024.3 0.0
27/05:30am 11.3 9.8 8.5 83 1.4 S 6 7 3 4 1024.2 1023.9 0.0
27/05:00am 11.3 10.2 8.5 83 1.4 S 4 6 2 3 1023.9 1023.6 0.0
27/04:30am 11.3 11.1 8.9 85 1.2 CALM 0 0 0 0 1023.9 1023.6 0.0
27/04:00am 11.6 10.3 9.2 85 1.2 S 6 7 3 4 1023.9 1023.6 0.0
27/03:30am 11.5 11.3 9.2 86 1.2 CALM 0 0 0 0 1024.0 1023.7 0.0
27/03:00am 12.3 12.3 9.9 85 1.2 CALM 0 0 0 0 1024.1 1023.8 0.0
27/02:30am 12.6 12.7 10.0 84 1.3 CALM 0 0 0 0 1024.1 1023.8 0.0
27/02:00am 13.3 12.1 10.3 82 1.6 S 7 9 4 5 1023.9 1023.6 0.0
27/01:30am 13.2 11.9 9.8 80 1.8 S 7 9 4 5 1023.8 1023.5 0.0
27/01:00am 14.5 13.4 10.5 77 2.1 S 7 9 4 5 1023.7 1023.4 0.0
27/12:30am 15.2 13.8 10.8 75 2.3 S 9 11 5 6 1023.8 1023.5 0.0
27/12:00am 15.8 14.3 10.6 71 2.8 S 9 11 5 6 1023.8 1023.5 0.0
 
Date/Time
EDT
Temp
°C
App
Temp
°C
Dew
Point
°C
Rel
Hum
%
Delta-T
°C
Wind Press
QNH
hPa
Press
MSL
hPa
Rain since
9am
mm
Dir  Spd
km/h
Gust
km/h
Spd
kts
Gust
kts
26/11:30pm 16.3 14.4 10.6 69 3.0 S 11 13 6 7 1023.8 1023.5 0.0
26/11:00pm 16.6 15.4 10.2 66 3.4 S 7 13 4 7 1023.9 1023.6 0.0
26/10:30pm 17.4 15.8 10.1 62 3.9 S 9 15 5 8 1023.8 1023.5 0.0
26/10:00pm 18.3 15.4 9.6 57 4.6 SSW 15 19 8 10 1023.6 1023.3 0.0
26/09:30pm 19.2 17.5 9.9 55 5.0 SSW 9 13 5 7 1023.7 1023.4 0.0
26/09:00pm 19.9 17.9 10.0 53 5.3 SSW 11 15 6 8 1023.4 1023.1 0.0
26/08:30pm 21.1 19.1 10.0 49 6.0 SSW 11 15 6 8 1023.0 1022.7 0.0
26/08:00pm 21.6 19.4 9.2 45 6.6 SSW 11 15 6 8 1022.7 1022.4 0.0
26/07:30pm 23.0 21.1 7.5 37 8.1 SSE 7 7 4 4 1022.4 1022.1 0.0
26/07:00pm 24.1 22.3 7.3 34 8.8 SE 6 11 3 6 1022.2 1021.9 0.0

Other formats

Comma delimited format used in spreadsheet applications
http://www.bom.gov.au/fwo/IDV60801/IDV60801.94875.axf

JavaScript Object Notation format (JSON) in row-major order
http://www.bom.gov.au/fwo/IDV60801/IDV60801.94875.json

Data quality

Most of these data are generated automatically and are frequently updated. Quality checks on data are not normally performed. It is possible for incorrect values to appear. Refer to information at About Latest Weather Observations and please check the disclaimer before using these data.